Time;durP1;ratioP1;P1;durP2;ratioP2;P2;SDS_P1;SDS_P2;PMS_P1;PMS_P2;Temp;Humidity;BMP_temperature;BMP_pressure;BME280_temperature;BME280_humidity;BME280_pressure;Samples;Min_cycle;Max_cycle;Signal;HPM_P1;HPM_P2
2024/02/19 00:01:35;;;;;;;18.77;7.00;;;9.80;99.90;;;;;;5097214;28;20474;-90
2024/02/19 00:04:04;;;;;;;14.85;5.72;;;9.80;99.90;;;;;;5080177;28;20028;-90
2024/02/19 00:06:29;;;;;;;18.90;7.22;;;9.80;99.90;;;;;;5099025;28;20456;-89
2024/02/19 00:08:57;;;;;;;14.50;7.18;;;9.80;99.90;;;;;;5101707;28;20055;-90
2024/02/19 00:11:22;;;;;;;17.20;7.53;;;9.90;99.90;;;;;;5102938;28;20064;-88
2024/02/19 00:13:48;;;;;;;22.33;7.38;;;9.90;99.90;;;;;;5103082;28;20077;-90
2024/02/19 00:16:14;;;;;;;18.92;7.15;;;9.90;99.90;;;;;;5096667;28;20481;-91
2024/02/19 00:18:39;;;;;;;18.77;7.70;;;9.90;99.90;;;;;;5079379;28;20473;-90
2024/02/19 00:21:05;;;;;;;17.02;6.60;;;9.90;99.90;;;;;;5096698;28;20035;-89
2024/02/19 00:23:33;;;;;;;18.17;6.25;;;9.90;99.90;;;;;;5096641;28;20040;-89
2024/02/19 00:26:00;;;;;;;20.05;6.53;;;9.90;99.90;;;;;;5096462;28;20111;-90
2024/02/19 00:28:27;;;;;;;21.15;7.35;;;10.00;99.90;;;;;;5098459;28;20024;-90
2024/02/19 00:30:55;;;;;;;23.05;6.65;;;9.90;99.90;;;;;;5096305;28;20032;-90
2024/02/19 00:33:23;;;;;;;16.35;6.20;;;9.90;99.90;;;;;;5095909;28;20024;-90
2024/02/19 00:35:49;;;;;;;21.42;7.05;;;9.90;99.90;;;;;;5078987;28;20036;-90
2024/02/19 00:38:15;;;;;;;20.73;5.90;;;9.90;99.90;;;;;;5096063;28;20139;-89
2024/02/19 00:40:42;;;;;;;21.75;6.30;;;9.90;99.90;;;;;;5095822;28;20504;-90
2024/02/19 00:43:07;;;;;;;20.05;7.38;;;9.90;99.90;;;;;;5096042;28;20032;-89
2024/02/19 00:45:34;;;;;;;19.67;7.35;;;9.90;99.90;;;;;;5095353;28;20055;-90
2024/02/19 00:48:01;;;;;;;16.92;5.97;;;9.90;99.90;;;;;;5096410;28;20141;-89
2024/02/19 00:50:28;;;;;;;17.00;5.80;;;9.80;99.90;;;;;;5078231;28;20043;-89
2024/02/19 00:52:54;;;;;;;17.13;4.88;;;9.80;99.90;;;;;;5095541;28;20077;-90
2024/02/19 00:55:23;;;;;;;15.65;5.18;;;9.80;99.90;;;;;;5095370;28;20372;-90
2024/02/19 00:57:49;;;;;;;25.05;5.97;;;9.80;99.90;;;;;;5078646;28;20028;-89
2024/02/19 01:00:16;;;;;;;19.48;4.68;;;9.80;99.90;;;;;;5096407;28;20435;-90
2024/02/19 01:02:42;;;;;;;13.77;4.40;;;9.70;99.90;;;;;;5096295;28;20029;-90
2024/02/19 01:05:08;;;;;;;13.43;3.60;;;9.70;99.90;;;;;;5078049;28;20116;-90
2024/02/19 01:07:35;;;;;;;16.33;4.95;;;9.60;99.90;;;;;;5078150;28;20395;-91
2024/02/19 01:10:01;;;;;;;13.50;3.33;;;9.60;99.90;;;;;;5095016;28;20032;-91
2024/02/19 01:12:26;;;;;;;16.50;3.85;;;9.60;99.90;;;;;;5097602;28;20311;-89
2024/02/19 01:14:52;;;;;;;14.93;2.95;;;9.50;99.90;;;;;;5113893;28;20012;-91
2024/02/19 01:17:18;;;;;;;18.27;4.05;;;9.50;99.90;;;;;;5110178;28;20034;-90
2024/02/19 01:19:44;;;;;;;14.25;3.05;;;9.50;99.90;;;;;;5105915;28;20032;-90
2024/02/19 01:22:12;;;;;;;11.02;3.70;;;9.40;99.90;;;;;;5083736;28;20058;-89
2024/02/19 01:24:39;;;;;;;17.48;3.20;;;9.40;99.90;;;;;;5104946;28;20028;-88
2024/02/19 01:27:06;;;;;;;23.17;3.30;;;9.40;99.90;;;;;;5108025;28;20017;-89
2024/02/19 01:29:32;;;;;;;13.35;3.50;;;9.40;99.90;;;;;;5066109;28;20035;-89
2024/02/19 01:31:58;;;;;;;15.88;3.15;;;9.30;99.90;;;;;;5105932;28;20024;-90
2024/02/19 01:34:24;;;;;;;10.75;3.10;;;9.40;99.90;;;;;;5082596;28;20093;-89
2024/02/19 01:36:49;;;;;;;13.20;3.00;;;9.30;99.90;;;;;;5097292;28;20030;-90
2024/02/19 01:39:18;;;;;;;15.70;3.40;;;9.30;99.90;;;;;;5081155;28;20440;-90
2024/02/19 01:41:44;;;;;;;19.77;3.50;;;9.30;99.90;;;;;;5098701;28;20024;-90
2024/02/19 01:44:09;;;;;;;13.55;3.10;;;9.30;99.90;;;;;;5098554;28;20049;-90
2024/02/19 01:46:39;;;;;;;16.42;3.22;;;9.30;99.90;;;;;;5096752;28;20401;-89
2024/02/19 01:49:12;;;;;;;17.13;3.55;;;9.30;99.90;;;;;;5097511;28;20028;-90
2024/02/19 01:51:41;;;;;;;12.07;3.70;;;9.30;99.90;;;;;;5097395;28;20065;-89
2024/02/19 01:54:09;;;;;;;15.90;4.35;;;9.30;99.90;;;;;;5096330;28;20074;-89
2024/02/19 01:56:38;;;;;;;18.38;3.95;;;9.30;99.90;;;;;;5095156;28;20546;-89
2024/02/19 01:59:06;;;;;;;14.68;4.68;;;9.30;99.90;;;;;;5094881;28;20028;-89
2024/02/19 02:01:36;;;;;;;21.10;3.95;;;9.30;99.90;;;;;;5095180;28;20028;-90
2024/02/19 02:04:03;;;;;;;19.40;5.35;;;9.30;99.90;;;;;;5077850;28;20039;-90
2024/02/19 02:06:28;;;;;;;18.42;4.03;;;9.30;99.90;;;;;;5077654;28;20438;-89
2024/02/19 02:08:55;;;;;;;24.70;4.13;;;9.30;99.90;;;;;;5078104;28;20059;-89
2024/02/19 02:11:21;;;;;;;16.35;4.10;;;9.30;99.90;;;;;;5094674;28;20031;-90
2024/02/19 02:13:46;;;;;;;23.80;4.25;;;9.30;99.90;;;;;;5094192;28;20028;-89
2024/02/19 02:16:22;;;;;;;19.20;4.43;;;9.30;99.90;;;;;;5094363;28;20024;-91
2024/02/19 02:18:48;;;;;;;15.20;4.03;;;9.30;99.90;;;;;;5094237;28;20085;-90
2024/02/19 02:21:16;;;;;;;16.88;4.05;;;9.20;99.90;;;;;;5093921;28;20432;-89
2024/02/19 02:23:41;;;;;;;15.57;4.03;;;9.30;99.90;;;;;;5094071;28;20097;-90
2024/02/19 02:26:07;;;;;;;17.15;3.30;;;9.20;99.90;;;;;;5094125;28;20024;-90
2024/02/19 02:28:33;;;;;;;11.20;2.90;;;9.20;99.90;;;;;;5077050;28;20027;-90
2024/02/19 02:30:59;;;;;;;14.07;3.33;;;9.20;99.90;;;;;;5094047;28;20073;-91
2024/02/19 02:33:24;;;;;;;11.98;3.03;;;9.20;99.90;;;;;;5092802;28;20020;-91
2024/02/19 02:35:50;;;;;;;9.63;2.75;;;9.20;99.90;;;;;;5077183;28;20035;-90
2024/02/19 02:38:16;;;;;;;15.13;3.25;;;9.20;99.90;;;;;;5094244;28;20084;-89
2024/02/19 02:40:42;;;;;;;8.57;2.00;;;9.10;99.90;;;;;;5093930;28;20032;-89
2024/02/19 02:43:07;;;;;;;11.40;2.53;;;9.10;99.90;;;;;;5094835;28;20043;-89
2024/02/19 02:45:33;;;;;;;7.03;2.08;;;9.10;99.90;;;;;;5078893;28;20055;-89
2024/02/19 02:47:59;;;;;;;9.32;2.60;;;9.10;99.90;;;;;;5093223;28;20035;-90
2024/02/19 02:50:24;;;;;;;19.92;2.33;;;9.10;99.90;;;;;;5093460;28;20020;-89
2024/02/19 02:52:51;;;;;;;11.02;2.58;;;9.10;99.90;;;;;;5093668;28;20035;-89
2024/02/19 02:55:16;;;;;;;5.40;2.13;;;9.10;99.90;;;;;;5093737;28;20032;-91
2024/02/19 02:57:43;;;;;;;12.38;2.33;;;9.00;99.90;;;;;;5093372;28;20036;-90
2024/02/19 03:00:09;;;;;;;16.40;3.30;;;9.00;99.90;;;;;;5093173;28;20020;-90
2024/02/19 03:02:35;;;;;;;10.32;2.63;;;9.00;99.90;;;;;;5075886;28;20438;-89
2024/02/19 03:05:02;;;;;;;13.30;3.00;;;9.00;99.90;;;;;;5093590;28;20050;-90
2024/02/19 03:07:29;;;;;;;8.80;2.33;;;9.00;99.90;;;;;;5076432;28;20032;-89
2024/02/19 03:09:56;;;;;;;9.73;2.35;;;9.00;99.90;;;;;;5093250;28;20023;-89
2024/02/19 03:12:22;;;;;;;8.30;3.45;;;9.00;99.90;;;;;;5093319;28;20485;-90
2024/02/19 03:14:48;;;;;;;10.07;2.28;;;9.00;99.90;;;;;;5093415;28;20039;-90
2024/02/19 03:17:14;;;;;;;6.13;2.35;;;8.90;99.90;;;;;;5093522;28;20016;-89
2024/02/19 03:19:43;;;;;;;10.90;2.40;;;8.90;99.90;;;;;;5094003;28;20036;-90
2024/02/19 03:22:10;;;;;;;7.00;2.03;;;8.90;99.90;;;;;;5093303;28;20119;-89
2024/02/19 03:24:37;;;;;;;10.43;2.95;;;8.90;99.90;;;;;;5093397;28;20040;-90
2024/02/19 03:27:04;;;;;;;10.68;3.33;;;8.90;99.90;;;;;;5093601;28;20020;-89
2024/02/19 03:29:30;;;;;;;11.30;2.20;;;8.80;99.90;;;;;;5094377;28;20537;-90
2024/02/19 03:31:56;;;;;;;17.58;3.20;;;8.80;99.90;;;;;;5094329;28;20024;-89
2024/02/19 03:34:22;;;;;;;7.72;1.88;;;8.80;99.90;;;;;;5100908;28;20028;-90
2024/02/19 03:36:51;;;;;;;10.00;2.40;;;8.80;99.90;;;;;;5107369;28;20020;-91
2024/02/19 03:39:17;;;;;;;7.60;1.90;;;8.80;99.90;;;;;;5106419;28;20096;-89
2024/02/19 03:41:43;;;;;;;8.50;2.28;;;8.80;99.90;;;;;;5098546;28;20102;-89
2024/02/19 03:44:09;;;;;;;13.98;2.72;;;8.80;99.90;;;;;;5096362;28;20048;-89
2024/02/19 03:46:35;;;;;;;10.05;3.22;;;8.80;99.90;;;;;;5097434;28;20118;-89
2024/02/19 03:49:01;;;;;;;14.57;2.53;;;8.80;99.90;;;;;;5080599;28;20086;-89
2024/02/19 03:51:27;;;;;;;12.63;1.90;;;8.80;99.90;;;;;;5097623;28;20082;-89
2024/02/19 03:53:54;;;;;;;8.13;2.20;;;8.80;99.90;;;;;;5097715;28;20363;-88
2024/02/19 03:56:21;;;;;;;14.80;3.70;;;8.80;99.90;;;;;;5079965;28;20059;-89
2024/02/19 03:58:48;;;;;;;7.45;2.28;;;8.80;99.90;;;;;;5096797;28;20088;-90
2024/02/19 04:01:14;;;;;;;15.63;3.20;;;8.80;99.90;;;;;;5096717;28;20024;-89
2024/02/19 04:03:39;;;;;;;16.30;2.17;;;8.80;99.90;;;;;;5096557;28;20036;-89
2024/02/19 04:06:05;;;;;;;17.45;2.15;;;8.80;99.90;;;;;;5096422;28;20024;-89
2024/02/19 04:08:35;;;;;;;7.85;2.28;;;8.80;99.90;;;;;;5096420;28;20089;-89
2024/02/19 04:11:02;;;;;;;13.80;2.20;;;8.80;99.90;;;;;;5096863;28;20102;-90
2024/02/19 04:13:27;;;;;;;11.30;1.67;;;8.70;99.90;;;;;;5079449;28;20280;-89
2024/02/19 04:15:54;;;;;;;18.00;2.47;;;8.80;99.90;;;;;;5096323;28;20040;-89
2024/02/19 04:18:20;;;;;;;10.07;2.10;;;8.80;99.90;;;;;;5096723;28;20055;-90
2024/02/19 04:20:46;;;;;;;18.00;2.45;;;8.80;99.90;;;;;;5079265;28;20027;-90
2024/02/19 04:23:12;;;;;;;8.57;2.17;;;8.80;99.90;;;;;;5096113;28;20127;-90
2024/02/19 04:25:37;;;;;;;16.55;2.30;;;8.80;99.90;;;;;;5096220;28;20024;-88
2024/02/19 04:28:03;;;;;;;10.02;2.45;;;8.80;99.90;;;;;;5079266;28;20439;-89
2024/02/19 04:30:29;;;;;;;17.08;2.22;;;8.80;99.90;;;;;;5096736;28;20035;-89
2024/02/19 04:32:55;;;;;;;18.67;2.40;;;8.70;99.90;;;;;;5095882;28;20031;-91
2024/02/19 04:35:20;;;;;;;16.67;2.95;;;8.70;99.90;;;;;;5095707;28;20023;-90
2024/02/19 04:37:46;;;;;;;15.85;2.03;;;8.70;99.90;;;;;;5095970;28;20028;-90
2024/02/19 04:40:12;;;;;;;11.27;1.80;;;8.70;99.90;;;;;;5095628;28;20016;-89
2024/02/19 04:42:39;;;;;;;7.00;1.60;;;8.70;99.90;;;;;;5078936;28;20036;-90
2024/02/19 04:45:05;;;;;;;6.63;1.30;;;8.70;99.90;;;;;;5078664;28;20394;-90
2024/02/19 04:47:31;;;;;;;11.95;1.90;;;8.70;99.90;;;;;;5095725;28;20093;-90
2024/02/19 04:49:56;;;;;;;7.10;1.52;;;8.70;99.90;;;;;;5095869;28;20024;-89
2024/02/19 04:52:23;;;;;;;17.67;1.95;;;8.70;99.90;;;;;;5095659;28;20469;-89
2024/02/19 04:54:49;;;;;;;12.88;1.77;;;8.60;99.90;;;;;;5095358;28;20028;-90
2024/02/19 04:57:15;;;;;;;20.92;3.15;;;8.60;99.90;;;;;;5095209;28;20085;-89
2024/02/19 04:59:42;;;;;;;9.07;1.73;;;8.60;99.90;;;;;;5078091;28;20036;-90
2024/02/19 05:02:09;;;;;;;6.82;1.27;;;8.60;99.90;;;;;;5098052;28;20125;-88
2024/02/19 05:04:35;;;;;;;11.10;2.03;;;8.60;99.90;;;;;;5097053;28;20031;-90
2024/02/19 05:07:01;;;;;;;14.02;2.30;;;8.60;99.90;;;;;;5094789;28;20101;-89
2024/02/19 05:09:27;;;;;;;13.05;1.40;;;8.60;99.90;;;;;;5095178;28;20023;-89
2024/02/19 05:11:53;;;;;;;10.45;2.00;;;8.60;99.90;;;;;;5095732;28;20021;-89
2024/02/19 05:14:19;;;;;;;14.27;2.85;;;8.60;99.90;;;;;;5094624;28;20439;-90
2024/02/19 05:16:45;;;;;;;11.80;1.77;;;8.60;99.90;;;;;;5077480;28;20035;-90
2024/02/19 05:19:11;;;;;;;19.27;2.55;;;8.60;99.90;;;;;;5095590;28;20031;-89
2024/02/19 05:21:43;;;;;;;8.15;1.83;;;8.60;99.90;;;;;;5094864;28;20028;-90
2024/02/19 05:24:09;;;;;;;18.88;3.70;;;8.60;99.90;;;;;;5093979;28;20040;-90
2024/02/19 05:26:35;;;;;;;14.18;1.63;;;8.60;99.90;;;;;;5077418;28;20054;-90
2024/02/19 05:29:01;;;;;;;14.43;1.67;;;8.60;99.90;;;;;;5094454;28;20036;-91
2024/02/19 05:31:36;;;;;;;8.55;1.83;;;8.60;99.90;;;;;;5094761;28;20087;-92
2024/02/19 05:34:03;;;;;;;13.57;2.05;;;8.60;99.90;;;;;;5095032;28;20055;-91
2024/02/19 05:36:29;;;;;;;12.73;2.28;;;8.60;99.90;;;;;;5094968;28;20028;-91
2024/02/19 05:38:55;;;;;;;14.10;2.75;;;8.60;99.90;;;;;;5095041;28;20069;-91
2024/02/19 05:41:20;;;;;;;11.85;2.97;;;8.60;99.90;;;;;;5094923;28;20034;-92
2024/02/19 05:43:47;;;;;;;14.48;1.70;;;8.60;99.90;;;;;;5094830;28;20047;-91
2024/02/19 05:46:18;;;;;;;10.13;2.28;;;8.60;99.90;;;;;;5071848;28;20132;-93
2024/02/19 05:48:44;;;;;;;10.35;1.88;;;8.60;99.90;;;;;;5071003;28;20028;-91
2024/02/19 05:51:11;;;;;;;16.08;2.30;;;8.60;99.90;;;;;;5071328;28;20083;-90
2024/02/19 05:53:37;;;;;;;14.55;1.98;;;8.60;99.90;;;;;;5070606;28;20029;-91
2024/02/19 05:56:04;;;;;;;12.60;2.30;;;8.60;99.90;;;;;;5054423;28;20562;-91
2024/02/19 05:58:32;;;;;;;14.00;2.58;;;8.60;99.90;;;;;;5075639;28;20021;-89
2024/02/19 06:00:58;;;;;;;11.63;2.03;;;8.60;99.90;;;;;;5083932;28;20070;-91
2024/02/19 06:03:25;;;;;;;12.55;2.67;;;8.60;99.90;;;;;;5086006;28;20048;-91
2024/02/19 06:05:51;;;;;;;10.57;1.90;;;8.60;99.90;;;;;;5083908;28;20075;-91
2024/02/19 06:08:17;;;;;;;15.68;2.63;;;8.60;99.90;;;;;;5054063;28;20044;-90
2024/02/19 06:10:45;;;;;;;9.73;2.42;;;8.60;99.90;;;;;;5071040;28;20024;-91
2024/02/19 06:13:15;;;;;;;15.50;2.72;;;8.70;99.90;;;;;;5054462;28;20033;-91
2024/02/19 06:15:43;;;;;;;13.70;2.47;;;8.70;99.90;;;;;;5070547;28;20060;-90
2024/02/19 06:18:09;;;;;;;13.50;2.70;;;8.70;99.90;;;;;;5070619;28;20033;-91
2024/02/19 06:20:36;;;;;;;15.52;3.92;;;8.70;99.90;;;;;;5069663;28;20359;-90
2024/02/19 06:23:03;;;;;;;14.30;4.25;;;8.80;99.90;;;;;;5070248;28;20047;-91
2024/02/19 06:25:29;;;;;;;15.55;3.15;;;8.70;99.90;;;;;;5069783;28;20024;-90
2024/02/19 06:27:54;;;;;;;16.08;2.03;;;8.70;99.90;;;;;;5070429;28;20025;-90
2024/02/19 06:30:21;;;;;;;7.88;1.67;;;8.70;99.90;;;;;;5052930;28;20032;-90
2024/02/19 06:32:48;;;;;;;9.68;1.58;;;8.70;99.90;;;;;;5069849;28;20029;-92
2024/02/19 06:35:14;;;;;;;5.93;1.13;;;8.70;99.90;;;;;;5070361;28;20041;-91
2024/02/19 06:37:41;;;;;;;7.25;1.00;;;8.60;99.90;;;;;;5054550;28;20036;-91
2024/02/19 06:40:07;;;;;;;4.85;1.00;;;8.60;99.90;;;;;;5053213;28;20140;-90
2024/02/19 06:42:34;;;;;;;6.93;1.40;;;8.60;99.90;;;;;;5070021;28;20077;-91
2024/02/19 06:45:00;;;;;;;9.35;1.40;;;8.60;99.90;;;;;;5080319;28;20036;-92
2024/02/19 06:47:26;;;;;;;4.70;1.27;;;8.60;99.90;;;;;;5090204;28;20031;-91
2024/02/19 06:49:51;;;;;;;4.65;0.70;;;8.60;99.90;;;;;;5089852;28;20576;-91
2024/02/19 06:52:22;;;;;;;5.80;0.98;;;8.60;99.90;;;;;;5090045;28;20089;-92
2024/02/19 06:54:48;;;;;;;5.72;1.65;;;8.60;99.90;;;;;;5089966;28;20052;-91
2024/02/19 06:57:14;;;;;;;8.18;3.38;;;8.60;99.90;;;;;;5089817;28;20052;-92
2024/02/19 06:59:40;;;;;;;8.75;1.90;;;8.60;99.90;;;;;;5089931;28;20036;-91
2024/02/19 07:02:07;;;;;;;16.38;3.38;;;8.60;99.90;;;;;;5089939;28;20033;-91
2024/02/19 07:04:35;;;;;;;11.90;2.33;;;8.60;99.90;;;;;;5089835;28;20185;-92
2024/02/19 07:07:01;;;;;;;18.85;2.45;;;8.60;99.90;;;;;;5089974;28;20127;-92
2024/02/19 07:09:26;;;;;;;14.63;3.63;;;8.60;99.90;;;;;;5089847;28;20025;-91
2024/02/19 07:11:52;;;;;;;19.73;3.08;;;8.60;99.90;;;;;;5089862;28;20031;-89
2024/02/19 07:14:18;;;;;;;13.48;3.00;;;8.60;99.90;;;;;;5089966;28;20389;-91
2024/02/19 07:16:44;;;;;;;13.35;2.42;;;8.60;99.90;;;;;;5090207;28;20021;-90
2024/02/19 07:19:10;;;;;;;14.52;3.33;;;8.70;99.90;;;;;;5075044;28;20098;-91
2024/02/19 07:21:35;;;;;;;14.57;3.13;;;8.70;99.90;;;;;;5095365;28;20368;-91
2024/02/19 07:24:01;;;;;;;11.75;2.03;;;8.70;99.90;;;;;;5093771;28;20090;-91
2024/02/19 07:26:27;;;;;;;15.32;3.17;;;8.70;99.90;;;;;;5093297;28;20030;-91
2024/02/19 07:28:52;;;;;;;11.98;2.65;;;8.70;99.90;;;;;;5092956;28;20028;-91
2024/02/19 07:31:18;;;;;;;17.75;3.05;;;8.70;99.90;;;;;;5093222;28;20112;-92
2024/02/19 07:33:44;;;;;;;18.02;2.47;;;8.70;99.90;;;;;;5093097;28;20022;-91
2024/02/19 07:36:10;;;;;;;16.00;2.72;;;8.70;99.90;;;;;;5093097;28;20115;-91
2024/02/19 07:38:35;;;;;;;13.43;1.77;;;8.70;99.90;;;;;;5093464;28;20074;-91
2024/02/19 07:41:01;;;;;;;18.10;2.90;;;8.70;99.90;;;;;;5094095;28;20024;-91
2024/02/19 07:43:27;;;;;;;22.50;2.83;;;8.70;99.90;;;;;;5094308;28;20043;-91
2024/02/19 07:45:52;;;;;;;9.40;2.45;;;8.70;99.90;;;;;;5075825;28;20128;-91
2024/02/19 07:48:18;;;;;;;21.77;3.30;;;8.70;99.90;;;;;;5072512;28;20035;-91
2024/02/19 07:50:44;;;;;;;18.33;2.92;;;8.70;99.90;;;;;;5072552;28;20021;-91
2024/02/19 07:53:10;;;;;;;16.50;2.13;;;8.70;99.90;;;;;;5072143;28;20025;-91
2024/02/19 07:55:37;;;;;;;22.13;2.60;;;8.70;99.90;;;;;;5072942;28;20032;-91
2024/02/19 07:58:03;;;;;;;23.58;2.85;;;8.70;99.90;;;;;;5072716;28;20079;-92
2024/02/19 08:00:29;;;;;;;13.32;2.53;;;8.70;99.90;;;;;;5072194;28;20021;-91
2024/02/19 08:02:55;;;;;;;16.13;2.85;;;8.70;99.90;;;;;;5055067;28;20113;-91
2024/02/19 08:05:21;;;;;;;22.27;2.92;;;8.70;99.90;;;;;;5072892;28;20479;-91
2024/02/19 08:07:47;;;;;;;21.65;3.03;;;8.70;99.90;;;;;;5072269;28;20032;-91
2024/02/19 08:10:12;;;;;;;16.80;3.38;;;8.70;99.90;;;;;;5072248;28;20116;-91
2024/02/19 08:12:38;;;;;;;22.15;4.88;;;8.70;99.90;;;;;;5072479;28;20028;-92
2024/02/19 08:15:05;;;;;;;27.27;3.78;;;8.80;99.90;;;;;;5072435;28;20105;-92
2024/02/19 08:17:31;;;;;;;15.75;3.08;;;8.80;99.90;;;;;;5055143;28;20060;-90
2024/02/19 08:19:56;;;;;;;16.75;2.60;;;8.80;99.90;;;;;;5072121;28;20071;-91
2024/02/19 08:22:22;;;;;;;19.73;2.83;;;8.80;99.90;;;;;;5072273;28;20021;-93
2024/02/19 08:24:48;;;;;;;24.77;2.90;;;8.70;99.90;;;;;;5072210;28;20114;-92
2024/02/19 08:27:14;;;;;;;21.17;3.00;;;8.80;99.90;;;;;;5071842;28;20025;-91
2024/02/19 08:29:39;;;;;;;23.13;2.85;;;8.80;99.90;;;;;;5071918;28;20029;-92
2024/02/19 08:32:05;;;;;;;18.90;2.45;;;8.80;99.90;;;;;;5055419;28;20505;-92
2024/02/19 08:34:31;;;;;;;27.13;3.70;;;8.80;99.90;;;;;;5072166;28;20033;-92
2024/02/19 08:36:57;;;;;;;21.23;3.33;;;8.80;99.90;;;;;;5071918;28;20036;-91
2024/02/19 08:39:22;;;;;;;26.10;2.97;;;8.80;99.90;;;;;;5055367;28;20035;-92
2024/02/19 08:41:48;;;;;;;23.10;3.13;;;8.80;99.90;;;;;;5071870;28;20455;-91
2024/02/19 08:44:14;;;;;;;25.77;3.90;;;8.80;99.90;;;;;;5075150;28;20052;-91
2024/02/19 08:46:39;;;;;;;18.65;2.95;;;8.90;99.90;;;;;;5076322;28;20055;-91
2024/02/19 08:49:08;;;;;;;16.90;3.65;;;8.90;99.90;;;;;;5091608;28;20032;-90
2024/02/19 08:51:34;;;;;;;22.27;2.35;;;8.90;99.90;;;;;;5091848;28;20032;-91
2024/02/19 08:54:00;;;;;;;18.15;2.33;;;8.90;99.90;;;;;;5091779;28;20024;-91
2024/02/19 08:56:26;;;;;;;15.88;2.65;;;8.90;99.90;;;;;;5091735;28;20044;-91
2024/02/19 08:58:52;;;;;;;18.95;2.50;;;9.00;99.90;;;;;;5075112;28;20024;-92
2024/02/19 09:01:19;;;;;;;20.67;2.97;;;9.00;99.90;;;;;;5090779;28;20105;-91
2024/02/19 09:03:47;;;;;;;19.50;3.88;;;9.00;99.90;;;;;;5091867;28;20477;-90
2024/02/19 09:06:12;;;;;;;21.55;2.90;;;9.10;99.90;;;;;;5091698;28;20033;-91
2024/02/19 09:08:38;;;;;;;23.77;3.33;;;9.10;99.90;;;;;;5091407;28;20094;-91
2024/02/19 09:11:04;;;;;;;26.50;3.30;;;9.10;99.90;;;;;;5091490;28;20090;-91
2024/02/19 09:13:34;;;;;;;16.35;2.25;;;9.10;99.90;;;;;;5091761;28;20119;-91
2024/02/19 09:16:00;;;;;;;20.65;3.53;;;9.20;99.90;;;;;;5091298;28;20055;-91
2024/02/19 09:18:26;;;;;;;21.65;3.13;;;9.20;99.90;;;;;;5090993;28;20029;-91
2024/02/19 09:20:52;;;;;;;26.92;3.70;;;9.20;99.90;;;;;;5091613;28;20039;-90
2024/02/19 09:23:17;;;;;;;21.30;2.92;;;9.20;99.90;;;;;;5090764;28;20040;-91
2024/02/19 09:25:43;;;;;;;23.30;3.00;;;9.30;99.90;;;;;;5090718;28;20021;-90
2024/02/19 09:28:09;;;;;;;27.88;3.70;;;9.30;99.90;;;;;;5090630;28;20390;-90
2024/02/19 09:30:34;;;;;;;21.67;4.03;;;9.30;99.90;;;;;;5090617;28;20052;-91
2024/02/19 09:33:00;;;;;;;23.58;3.30;;;9.40;99.90;;;;;;5091070;28;20028;-92
2024/02/19 09:35:26;;;;;;;25.83;3.58;;;9.40;99.90;;;;;;5090498;28;20025;-90
2024/02/19 09:37:51;;;;;;;22.77;3.42;;;9.40;99.90;;;;;;5091238;28;20286;-91
2024/02/19 09:40:20;;;;;;;25.02;2.92;;;9.50;99.90;;;;;;5091263;28;20105;-91
2024/02/19 09:42:47;;;;;;;22.80;2.97;;;9.50;99.90;;;;;;5089562;28;20032;-90
2024/02/19 09:45:14;;;;;;;25.77;4.00;;;9.60;99.90;;;;;;5086798;28;20063;-91
2024/02/19 09:47:44;;;;;;;21.40;2.80;;;9.70;99.90;;;;;;5079263;28;20028;-90
2024/02/19 09:50:12;;;;;;;25.55;3.15;;;9.80;99.90;;;;;;5107066;28;20445;-90
2024/02/19 09:52:39;;;;;;;24.92;2.92;;;9.80;99.90;;;;;;5105946;28;20032;-91
2024/02/19 09:55:08;;;;;;;19.10;3.63;;;9.90;99.90;;;;;;5099958;28;20032;-90
2024/02/19 09:57:35;;;;;;;25.60;3.47;;;9.90;99.90;;;;;;5103289;28;20020;-90
2024/02/19 10:00:04;;;;;;;22.17;2.60;;;9.90;99.90;;;;;;5100641;28;20028;-90
2024/02/19 10:02:30;;;;;;;27.30;4.32;;;10.00;99.90;;;;;;5101577;28;20446;-90
2024/02/19 10:04:55;;;;;;;25.27;2.60;;;10.00;99.90;;;;;;5102623;28;20020;-91
2024/02/19 10:07:21;;;;;;;23.80;3.67;;;10.20;99.90;;;;;;5104954;28;20027;-90
2024/02/19 10:09:47;;;;;;;20.65;2.60;;;10.20;99.90;;;;;;5105005;28;20039;-90
2024/02/19 10:12:13;;;;;;;24.67;4.25;;;10.30;99.90;;;;;;5105277;28;20032;-89
2024/02/19 10:14:39;;;;;;;25.20;3.22;;;10.30;99.90;;;;;;5088695;28;20053;-91
2024/02/19 10:17:07;;;;;;;23.92;2.90;;;10.30;99.90;;;;;;5102420;28;20393;-90
2024/02/19 10:19:33;;;;;;;23.50;4.00;;;10.30;99.90;;;;;;5094150;28;20024;-91
2024/02/19 10:21:59;;;;;;;26.30;3.53;;;10.20;99.90;;;;;;5095018;28;20035;-90
2024/02/19 10:24:26;;;;;;;23.98;3.88;;;10.10;99.90;;;;;;5094284;28;20028;-90
2024/02/19 10:26:53;;;;;;;30.95;5.70;;;10.10;99.90;;;;;;5095112;28;20028;-91
2024/02/19 10:29:20;;;;;;;22.63;3.85;;;10.30;99.90;;;;;;5077140;28;20028;-90
2024/02/19 10:31:46;;;;;;;30.00;3.22;;;10.40;99.90;;;;;;5093766;28;20073;-90
2024/02/19 10:34:14;;;;;;;23.55;5.95;;;10.50;99.90;;;;;;5094372;28;20021;-90
2024/02/19 10:36:45;;;;;;;23.67;3.97;;;10.50;99.90;;;;;;5094304;28;20031;-90
2024/02/19 10:39:11;;;;;;;23.77;4.05;;;10.50;99.90;;;;;;5094504;28;20051;-90
2024/02/19 10:41:39;;;;;;;19.63;3.80;;;10.60;99.90;;;;;;5093941;28;20028;-90
2024/02/19 10:44:05;;;;;;;17.90;2.58;;;10.70;99.90;;;;;;5094065;28;20088;-89
2024/02/19 10:46:35;;;;;;;24.95;3.97;;;10.80;99.90;;;;;;5094258;28;20031;-89
2024/02/19 10:49:02;;;;;;;25.25;3.50;;;10.80;99.90;;;;;;5093616;28;20020;-90
2024/02/19 10:51:29;;;;;;;32.75;5.00;;;10.80;99.90;;;;;;5093305;28;20020;-90
2024/02/19 10:54:01;;;;;;;20.88;3.25;;;10.80;99.90;;;;;;5094170;28;20063;-90
2024/02/19 10:56:38;;;;;;;32.42;4.68;;;10.90;99.90;;;;;;5097735;28;20024;-90
2024/02/19 10:59:04;;;;;;;29.73;5.85;;;11.00;99.90;;;;;;5098324;28;20017;-90
2024/02/19 11:02:08;;;;;;;31.30;3.88;;;11.00;99.90;;;;;;5080722;28;20031;-89
2024/02/19 11:04:34;;;;;;;32.60;4.50;;;10.90;99.90;;;;;;5080492;28;20504;-89
2024/02/19 11:07:03;;;;;;;18.52;3.05;;;10.90;99.90;;;;;;5064203;28;20032;-90
2024/02/19 11:09:33;;;;;;;28.33;4.85;;;10.80;99.90;;;;;;5097158;28;20084;-89
2024/02/19 11:12:00;;;;;;;24.42;4.30;;;10.90;99.90;;;;;;5098086;28;20024;-90
2024/02/19 11:14:32;;;;;;;22.15;3.70;;;10.90;99.90;;;;;;5098445;28;20036;-89
2024/02/19 11:16:59;;;;;;;19.10;4.03;;;10.90;99.90;;;;;;5097752;28;20035;-89
2024/02/19 11:19:26;;;;;;;25.85;3.35;;;10.90;99.90;;;;;;5097600;28;20024;-89
2024/02/19 11:22:03;;;;;;;28.45;4.53;;;10.90;99.90;;;;;;5097525;28;20085;-90
2024/02/19 11:24:32;;;;;;;24.80;3.38;;;10.90;99.90;;;;;;5097156;28;20442;-90
2024/02/19 11:26:58;;;;;;;26.30;3.83;;;10.80;99.90;;;;;;5097342;28;20039;-90
2024/02/19 11:29:25;;;;;;;18.58;2.60;;;10.80;99.90;;;;;;5097261;28;20024;-90
2024/02/19 11:32:05;;;;;;;27.02;4.68;;;10.90;99.90;;;;;;5097429;28;20161;-89
2024/02/19 11:34:32;;;;;;;24.25;3.47;;;11.00;99.90;;;;;;5098307;28;20036;-89
2024/02/19 11:37:03;;;;;;;25.92;5.03;;;11.00;99.90;;;;;;5098019;28;20024;-89
2024/02/19 11:39:30;;;;;;;26.38;3.08;;;11.30;99.90;;;;;;5098812;28;20107;-90
2024/02/19 11:41:56;;;;;;;26.90;4.68;;;11.70;99.90;;;;;;5084326;28;20446;-90
2024/02/19 11:44:24;;;;;;;22.02;3.22;;;11.90;99.90;;;;;;5105477;28;20045;-90
2024/02/19 11:46:50;;;;;;;23.50;3.15;;;11.90;99.90;;;;;;5105711;28;20064;-89
2024/02/19 11:49:17;;;;;;;29.13;4.15;;;11.80;99.90;;;;;;5106335;28;20054;-89
2024/02/19 11:51:44;;;;;;;31.60;4.35;;;11.70;99.90;;;;;;5101871;28;20032;-89
2024/02/19 11:54:11;;;;;;;32.03;4.18;;;11.70;99.90;;;;;;5103296;28;20020;-90
2024/02/19 11:56:52;;;;;;;27.05;3.30;;;11.70;99.90;;;;;;5096596;28;20024;-90
2024/02/19 11:59:21;;;;;;;26.63;3.75;;;11.60;99.90;;;;;;5096347;28;20031;-89
2024/02/19 12:01:57;;;;;;;26.17;3.63;;;11.50;99.90;;;;;;5095680;28;20036;-89
2024/02/19 12:04:24;;;;;;;29.95;3.63;;;11.50;99.90;;;;;;5096090;28;20048;-90
2024/02/19 12:06:50;;;;;;;24.10;5.65;;;11.50;99.90;;;;;;5097311;28;20031;-89
2024/02/19 12:09:16;;;;;;;17.10;2.78;;;11.60;99.90;;;;;;5062289;28;20028;-89
2024/02/19 12:11:45;;;;;;;22.95;3.17;;;11.70;99.90;;;;;;5095972;28;20489;-89
2024/02/19 12:14:14;;;;;;;33.00;4.75;;;11.80;99.90;;;;;;5095970;28;20027;-89
2024/02/19 12:16:39;;;;;;;33.95;3.88;;;11.80;99.90;;;;;;5095891;28;20039;-89
2024/02/19 12:19:07;;;;;;;30.88;4.05;;;11.90;99.90;;;;;;5096783;28;20375;-89
2024/02/19 12:21:34;;;;;;;28.88;3.33;;;11.90;99.90;;;;;;5096142;28;20089;-89
2024/02/19 12:24:04;;;;;;;33.83;4.20;;;11.90;99.90;;;;;;5061677;28;20043;-89
2024/02/19 12:26:30;;;;;;;;;;;11.90;99.90;;;;;;5095973;28;20066;-88
2024/02/19 12:28:56;;;;;;;27.00;3.53;;;11.80;99.90;;;;;;5096767;28;19908;-89
2024/02/19 12:31:22;;;;;;;38.50;3.78;;;11.70;99.90;;;;;;5095408;28;20065;-90
2024/02/19 12:33:49;;;;;;;24.75;3.25;;;11.50;99.90;;;;;;5095432;28;20027;-88
2024/02/19 12:36:18;;;;;;;27.38;3.78;;;11.40;99.90;;;;;;5096012;28;20539;-90
2024/02/19 12:38:45;;;;;;;24.30;4.00;;;11.30;99.90;;;;;;5079384;28;20130;-91
2024/02/19 12:41:17;;;;;;;19.45;3.38;;;11.20;99.90;;;;;;5095566;28;20512;-91
2024/02/19 12:43:45;;;;;;;20.83;3.63;;;11.20;99.90;;;;;;5094664;28;20477;-91